Time;durP1;ratioP1;P1;durP2;ratioP2;P2;SDS_P1;SDS_P2;PMS_P1;PMS_P2;Temp;Humidity;BMP_temperature;BMP_pressure;BME280_temperature;BME280_humidity;BME280_pressure;Samples;Min_cycle;Max_cycle;Signal;HPM_P1;HPM_P2
2022/03/06 00:00:31;;;;;;;18.90;12.60;;;;;;;;;;5036817;28;20056;-57
2022/03/06 00:03:02;;;;;;;16.92;12.73;;;0.40;99.90;;;;;;5034414;28;20040;-58
2022/03/06 00:05:28;;;;;;;16.70;13.45;;;;;;;;;;5036292;28;20036;-58
2022/03/06 00:07:56;;;;;;;19.48;12.38;;;;;;;;;;5037047;28;20041;-58
2022/03/06 00:10:24;;;;;;;16.40;11.10;;;;;;;;;;5032660;28;20048;-58
2022/03/06 00:12:50;;;;;;;16.40;12.20;;;;;;;;;;5037663;28;20045;-57
2022/03/06 00:15:16;;;;;;;18.23;11.45;;;;;;;;;;5039545;28;20037;-57
2022/03/06 00:17:42;;;;;;;14.70;10.85;;;;;;;;;;5034114;28;20045;-58
2022/03/06 00:20:08;;;;;;;16.73;11.48;;;;;;;;;;5034130;28;20037;-58
2022/03/06 00:22:35;;;;;;;17.52;12.05;;;0.90;99.90;;;;;;5033392;28;20045;-58
2022/03/06 00:25:02;;;;;;;18.17;11.60;;;;;;;;;;5036212;28;20095;-58
2022/03/06 00:27:30;;;;;;;14.98;11.48;;;;;;;;;;5030615;28;20048;-58
2022/03/06 00:29:56;;;;;;;14.23;11.02;;;;;;;;;;5032983;28;20623;-58
2022/03/06 00:32:22;;;;;;;20.27;11.48;;;;;;;;;;5027817;28;20045;-58
2022/03/06 00:34:48;;;;;;;17.52;11.98;;;;;;;;;;5030532;28;20660;-58
2022/03/06 00:37:15;;;;;;;17.63;12.13;;;;;;;;;;5028272;28;20238;-58
2022/03/06 00:39:41;;;;;;;15.48;11.82;;;;;;;;;;5019656;28;20102;-58
2022/03/06 00:42:08;;;;;;;17.40;8.95;;;;;;;;;;5035769;28;20148;-58
2022/03/06 00:44:35;;;;;;;15.85;11.02;;;;;;;;;;5035311;28;20115;-58
2022/03/06 00:47:01;;;;;;;16.65;11.15;;;;;;;;;;5033527;28;20054;-58
2022/03/06 00:49:27;;;;;;;15.95;11.05;;;;;;;;;;5033464;28;20156;-57
2022/03/06 00:51:53;;;;;;;17.38;10.55;;;;;;;;;;5011419;28;20033;-58
2022/03/06 00:54:22;;;;;;;15.48;9.68;;;;;;;;;;5041562;28;20043;-58
2022/03/06 00:56:48;;;;;;;15.95;11.52;;;;;;;;;;5039123;28;20605;-59
2022/03/06 00:59:16;;;;;;;13.18;9.27;;;;;;;;;;5034723;28;20098;-58
2022/03/06 01:01:42;;;;;;;15.95;10.30;;;;;;;;;;5032788;28;20095;-58
2022/03/06 01:04:09;;;;;;;13.05;9.40;;;;;;;;;;5034242;28;20080;-58
2022/03/06 01:06:37;;;;;;;16.73;10.23;;;;;;;;;;5030513;28;20513;-57
2022/03/06 01:09:04;;;;;;;13.57;9.82;;;;;;;;;;5032508;28;20072;-58
2022/03/06 01:11:30;;;;;;;14.82;10.63;;;;;;;;;;5029612;28;20042;-58
2022/03/06 01:13:59;;;;;;;15.98;10.30;;;;;;;;;;5032406;28;20045;-58
2022/03/06 01:16:25;;;;;;;14.38;9.90;;;;;;;;;;5028263;28;20079;-58
2022/03/06 01:18:51;;;;;;;15.55;9.35;;;;;;;;;;5035180;28;20049;-57
2022/03/06 01:21:17;;;;;;;12.38;9.73;;;;;;;;;;5032347;28;20073;-58
2022/03/06 01:23:43;;;;;;;14.50;9.98;;;;;;;;;;5031410;28;20622;-58
2022/03/06 01:26:09;;;;;;;14.60;10.20;;;;;;;;;;5041112;28;20125;-57
2022/03/06 01:28:35;;;;;;;13.73;9.98;;;;;;;;;;5036659;28;20345;-57
2022/03/06 01:31:01;;;;;;;13.52;9.05;;;;;;;;;;5037387;28;20056;-58
2022/03/06 01:33:27;;;;;;;14.73;9.27;;;;;;;;;;5034476;28;20033;-57
2022/03/06 01:35:53;;;;;;;13.57;8.20;;;;;;;;;;5035489;28;20056;-58
2022/03/06 01:38:19;;;;;;;12.15;8.95;;;;;;;;;;5030529;28;20075;-58
2022/03/06 01:40:46;;;;;;;12.48;8.88;;;1.00;99.90;;;;;;5036717;28;20100;-58
2022/03/06 01:43:12;;;;;;;13.75;8.57;;;;;;;;;;5033127;28;20505;-58
2022/03/06 01:45:39;;;;;;;12.57;9.00;;;;;;;;;;5031278;28;20071;-58
2022/03/06 01:48:08;;;;;;;14.07;8.57;;;;;;;;;;5023456;28;20173;-58
2022/03/06 01:50:35;;;;;;;13.07;8.32;;;;;;;;;;5035855;28;20047;-58
2022/03/06 01:53:02;;;;;;;12.82;8.00;;;;;;;;;;5034432;28;20082;-58
2022/03/06 01:55:28;;;;;;;11.70;7.88;;;;;;;;;;5033804;28;20037;-58
2022/03/06 01:57:55;;;;;;;11.95;7.80;;;;;;;;;;5031901;28;20044;-57
2022/03/06 02:00:23;;;;;;;16.77;7.40;;;1.20;99.90;;;;;;5034074;28;20140;-58
2022/03/06 02:02:49;;;;;;;11.30;7.68;;;;;;;;;;5036638;28;20533;-57
2022/03/06 02:05:15;;;;;;;11.60;8.18;;;;;;;;;;5035955;28;20610;-58
2022/03/06 02:07:42;;;;;;;13.20;8.35;;;;;;;;;;5031191;28;20044;-57
2022/03/06 02:10:10;;;;;;;12.35;7.82;;;;;;;;;;5036525;28;20075;-58
2022/03/06 02:12:37;;;;;;;12.70;8.32;;;;;;;;;;5036067;28;20126;-57
2022/03/06 02:15:04;;;;;;;12.93;7.43;;;;;;;;;;5014738;28;20037;-57
2022/03/06 02:17:30;;;;;;;13.75;7.93;;;;;;;;;;5028580;28;20059;-58
2022/03/06 02:19:57;;;;;;;13.77;6.82;;;;;;;;;;5032162;28;20103;-57
2022/03/06 02:22:28;;;;;;;12.45;7.03;;;;;;;;;;5029855;28;20049;-58
2022/03/06 02:24:54;;;;;;;13.50;6.65;;;;;;;;;;5035086;28;20127;-57
2022/03/06 02:27:20;;;;;;;10.63;6.05;;;;;;;;;;5042323;28;20562;-58
2022/03/06 02:29:48;;;;;;;10.52;6.25;;;1.30;99.90;;;;;;5040832;28;20050;-57
2022/03/06 02:32:16;;;;;;;9.52;5.90;;;;;;;;;;5019214;28;20033;-58
2022/03/06 02:34:43;;;;;;;11.88;6.53;;;1.30;99.90;;;;;;5042844;28;20136;-58
2022/03/06 02:37:11;;;;;;;9.88;5.78;;;;;;;;;;5038706;28;20131;-57
2022/03/06 02:39:37;;;;;;;10.18;5.63;;;;;;;;;;5036375;28;20528;-57
2022/03/06 02:42:04;;;;;;;9.02;5.72;;;;;;;;;;5028383;28;20045;-57
2022/03/06 02:44:30;;;;;;;8.48;4.15;;;;;;;;;;5025389;28;20726;-58
2022/03/06 02:46:56;;;;;;;9.07;4.68;;;;;;;;;;5042980;28;20110;-57
2022/03/06 02:49:23;;;;;;;10.02;5.68;;;;;;;;;;5042473;28;20116;-57
2022/03/06 02:51:49;;;;;;;7.68;5.32;;;;;;;;;;5041044;28;20107;-58
2022/03/06 02:54:17;;;;;;;12.10;6.18;;;;;;;;;;5036500;28;20496;-58
2022/03/06 02:56:47;;;;;;;12.45;6.55;;;;;;;;;;5028852;28;20033;-57
2022/03/06 02:59:13;;;;;;;10.60;5.80;;;;;;;;;;5035913;28;20037;-58
2022/03/06 03:01:41;;;;;;;8.45;5.03;;;;;;;;;;5041092;28;20076;-57
2022/03/06 03:04:11;;;;;;;9.20;5.25;;;;;;;;;;5039749;28;20053;-58
2022/03/06 03:06:37;;;;;;;9.80;5.15;;;;;;;;;;5038126;28;20049;-58
2022/03/06 03:09:04;;;;;;;8.30;5.22;;;;;;;;;;5036867;28;20041;-58
2022/03/06 03:11:31;;;;;;;11.90;5.32;;;;;;;;;;5037454;28;20482;-58
2022/03/06 03:13:57;;;;;;;9.13;5.63;;;;;;;;;;5032068;28;20115;-57
2022/03/06 03:16:23;;;;;;;11.07;4.38;;;;;;;;;;5033150;28;20548;-58
2022/03/06 03:18:49;;;;;;;9.50;5.93;;;;;;;;;;5040216;28;20135;-57
2022/03/06 03:21:15;;;;;;;10.43;5.28;;;;;;;;;;5037018;28;20041;-57
2022/03/06 03:23:41;;;;;;;8.95;4.70;;;;;;;;;;5033635;28;20045;-58
2022/03/06 03:26:09;;;;;;;9.95;4.70;;;1.20;99.90;;;;;;5034971;28;20037;-57
2022/03/06 03:28:35;;;;;;;10.88;5.13;;;;;;;;;;5030480;28;20052;-57
2022/03/06 03:31:01;;;;;;;8.55;4.78;;;;;;;;;;5040892;28;20041;-58
2022/03/06 03:33:28;;;;;;;11.05;5.40;;;;;;;;;;5037360;28;20045;-58
2022/03/06 03:35:54;;;;;;;9.32;5.43;;;;;;;;;;5036251;28;20188;-57
2022/03/06 03:38:20;;;;;;;11.40;6.47;;;;;;;;;;5037668;28;20033;-59
2022/03/06 03:40:47;;;;;;;9.20;5.55;;;;;;;;;;5033516;28;20124;-58
2022/03/06 03:43:13;;;;;;;9.00;5.43;;;;;;;;;;5042951;28;20037;-59
2022/03/06 03:45:39;;;;;;;11.15;5.50;;;;;;;;;;5042921;28;20087;-58
2022/03/06 03:48:05;;;;;;;13.50;5.50;;;;;;;;;;5032749;28;20078;-57
2022/03/06 03:50:31;;;;;;;10.35;5.43;;;;;;;;;;5036086;28;20084;-58
2022/03/06 03:52:57;;;;;;;11.45;5.82;;;;;;;;;;5038627;28;20079;-57
2022/03/06 03:55:23;;;;;;;10.10;5.80;;;;;;;;;;5040567;28;20065;-57
2022/03/06 03:57:50;;;;;;;9.20;5.68;;;;;;;;;;5036646;28;20401;-57
2022/03/06 04:00:16;;;;;;;9.43;5.43;;;;;;;;;;5031031;28;20037;-58
2022/03/06 04:02:44;;;;;;;9.93;4.68;;;;;;;;;;5032511;28;20510;-58
2022/03/06 04:05:10;;;;;;;14.95;5.65;;;;;;;;;;5039571;28;20090;-57
2022/03/06 04:07:36;;;;;;;10.35;5.30;;;;;;;;;;5040107;28;20124;-58
2022/03/06 04:10:02;;;;;;;10.88;5.72;;;;;;;;;;5033693;28;20045;-57
2022/03/06 04:12:28;;;;;;;11.23;4.88;;;;;;;;;;5033791;28;20410;-58
2022/03/06 04:14:54;;;;;;;9.63;4.72;;;;;;;;;;5027361;28;20049;-58
2022/03/06 04:17:23;;;;;;;11.32;5.63;;;;;;;;;;5033082;28;20589;-58
2022/03/06 04:19:49;;;;;;;10.38;5.10;;;;;;;;;;5035094;28;20414;-58
2022/03/06 04:22:15;;;;;;;10.60;5.18;;;;;;;;;;5032084;28;20036;-58
2022/03/06 04:24:42;;;;;;;13.30;6.07;;;;;;;;;;5030971;28;20670;-57
2022/03/06 04:27:09;;;;;;;10.50;4.68;;;;;;;;;;5034873;28;20424;-57
2022/03/06 04:29:35;;;;;;;8.75;4.35;;;;;;;;;;5031277;28;20045;-58
2022/03/06 04:32:03;;;;;;;9.52;4.50;;;0.80;99.90;;;;;;5033971;28;20041;-58
2022/03/06 04:34:29;;;;;;;9.88;5.57;;;;;;;;;;5036390;28;20041;-57
2022/03/06 04:36:55;;;;;;;14.15;6.10;;;;;;;;;;5033730;28;20041;-57
2022/03/06 04:39:21;;;;;;;10.52;5.47;;;;;;;;;;5027725;28;20045;-58
2022/03/06 04:41:47;;;;;;;13.85;6.15;;;;;;;;;;5037429;28;20095;-57
2022/03/06 04:44:13;;;;;;;10.35;5.00;;;;;;;;;;5037539;28;20048;-57
2022/03/06 04:46:40;;;;;;;10.05;4.97;;;;;;;;;;5022545;28;20049;-57
2022/03/06 04:49:06;;;;;;;12.15;5.85;;;;;;;;;;5035234;28;20394;-57
2022/03/06 04:51:34;;;;;;;12.27;5.00;;;;;;;;;;5037619;28;20373;-58
2022/03/06 04:54:00;;;;;;;13.27;5.53;;;;;;;;;;5027622;28;20041;-58
2022/03/06 04:56:26;;;;;;;10.43;5.90;;;;;;;;;;5028279;28;20040;-58
2022/03/06 04:58:52;;;;;;;11.30;5.22;;;;;;;;;;5040868;28;20049;-58
2022/03/06 05:01:18;;;;;;;9.32;4.88;;;;;;;;;;5014231;28;20040;-57
2022/03/06 05:03:44;;;;;;;8.85;5.50;;;;;;;;;;5035922;28;20397;-58
2022/03/06 05:06:12;;;;;;;10.18;5.40;;;;;;;;;;5035732;28;20037;-57
2022/03/06 05:08:38;;;;;;;18.48;6.68;;;;;;;;;;5016538;28;20124;-58
2022/03/06 05:11:04;;;;;;;10.45;5.82;;;;;;;;;;5035597;28;20037;-58
2022/03/06 05:13:30;;;;;;;8.80;4.82;;;;;;;;;;5028801;28;20120;-57
2022/03/06 05:15:58;;;;;;;9.48;5.07;;;;;;;;;;5036636;28;20044;-57
2022/03/06 05:18:24;;;;;;;9.40;5.03;;;;;;;;;;5040757;28;20041;-58
2022/03/06 05:20:50;;;;;;;11.80;5.93;;;;;;;;;;5038549;28;20064;-57
2022/03/06 05:23:19;;;;;;;9.07;4.70;;;;;;;;;;5041932;28;20041;-58
2022/03/06 05:25:47;;;;;;;12.07;5.65;;;;;;;;;;5035904;28;20756;-57
2022/03/06 05:28:13;;;;;;;8.63;4.97;;;;;;;;;;5040044;28;20033;-57
2022/03/06 05:30:39;;;;;;;13.95;5.45;;;;;;;;;;5040077;28;20048;-57
2022/03/06 05:33:05;;;;;;;10.57;5.15;;;;;;;;;;5029123;28;20037;-58
2022/03/06 05:35:31;;;;;;;10.93;5.45;;;;;;;;;;5028164;28;20048;-58
2022/03/06 05:37:57;;;;;;;10.75;5.57;;;;;;;;;;5037271;28;20053;-57
2022/03/06 05:40:24;;;;;;;12.27;5.70;;;;;;;;;;5035752;28;20179;-58
2022/03/06 05:42:50;;;;;;;12.90;5.65;;;;;;;;;;5034662;28;20033;-58
2022/03/06 05:45:16;;;;;;;9.07;5.35;;;;;;;;;;5035381;28;20079;-58
2022/03/06 05:47:43;;;;;;;10.15;5.20;;;;;;;;;;5028724;28;20045;-58
2022/03/06 05:50:10;;;;;;;12.88;5.47;;;;;;;;;;5033618;28;20045;-58
2022/03/06 05:52:36;;;;;;;9.20;5.28;;;;;;;;;;5021036;28;20161;-58
2022/03/06 05:55:03;;;;;;;10.55;5.25;;;;;;;;;;5023576;28;20038;-59
2022/03/06 05:57:29;;;;;;;10.77;6.05;;;;;;;;;;5033226;28;20041;-59
2022/03/06 05:59:55;;;;;;;11.55;5.85;;;;;;;;;;5025572;28;20426;-58
2022/03/06 06:02:22;;;;;;;9.57;5.43;;;;;;;;;;5037621;28;20611;-58
2022/03/06 06:04:48;;;;;;;15.40;5.13;;;;;;;;;;5036794;28;20053;-58
2022/03/06 06:07:15;;;;;;;14.30;5.53;;;;;;;;;;5028179;28;20044;-59
2022/03/06 06:09:41;;;;;;;13.32;5.43;;;;;;;;;;5014473;28;20502;-58
2022/03/06 06:12:09;;;;;;;10.93;5.65;;;;;;;;;;5028794;28;20171;-59
2022/03/06 06:14:35;;;;;;;9.73;5.32;;;;;;;;;;5026208;28;20029;-58
2022/03/06 06:17:01;;;;;;;10.65;5.22;;;;;;;;;;5027484;28;20591;-58
2022/03/06 06:19:29;;;;;;;10.27;4.70;;;;;;;;;;5031658;28;20124;-59
2022/03/06 06:21:55;;;;;;;12.13;5.30;;;;;;;;;;5034430;28;20049;-59
2022/03/06 06:24:21;;;;;;;10.50;5.13;;;;;;;;;;5031128;28;20053;-59
2022/03/06 06:26:49;;;;;;;8.30;5.53;;;;;;;;;;5032021;28;20509;-59
2022/03/06 06:29:15;;;;;;;12.18;5.70;;;;;;;;;;5037773;28;20037;-58
2022/03/06 06:31:42;;;;;;;9.50;4.32;;;;;;;;;;5037874;28;20045;-58
2022/03/06 06:34:08;;;;;;;10.80;4.50;;;;;;;;;;5034681;28;20033;-58
2022/03/06 06:36:34;;;;;;;9.43;4.45;;;;;;;;;;5034065;28;20037;-58
2022/03/06 06:39:00;;;;;;;9.18;5.10;;;;;;;;;;5024028;28;20049;-58
2022/03/06 06:41:28;;;;;;;12.25;5.40;;;;;;;;;;5033262;28;20049;-58
2022/03/06 06:43:54;;;;;;;11.63;4.93;;;;;;;;;;5034522;28;20162;-58
2022/03/06 06:46:20;;;;;;;7.55;4.22;;;;;;;;;;5035485;28;20041;-58
2022/03/06 06:48:46;;;;;;;9.13;4.53;;;;;;;;;;5037897;28;20041;-58
2022/03/06 06:51:12;;;;;;;8.55;4.65;;;;;;;;;;5016136;28;20502;-58
2022/03/06 06:53:38;;;;;;;5.63;3.20;;;;;;;;;;5020519;28;20616;-58
2022/03/06 06:56:04;;;;;;;7.43;3.95;;;;;;;;;;5026178;28;20041;-58
2022/03/06 06:58:30;;;;;;;5.57;3.45;;;;;;;;;;5038225;28;20040;-58
2022/03/06 07:00:57;;;;;;;5.97;3.22;;;;;;;;;;5026004;28;20808;-58
2022/03/06 07:03:23;;;;;;;7.95;3.20;;;;;;;;;;5030518;28;20034;-58
2022/03/06 07:05:49;;;;;;;5.90;3.42;;;;;;;;;;5027746;28;20034;-58
2022/03/06 07:08:16;;;;;;;6.97;2.80;;;;;;;;;;5032836;28;20040;-59
2022/03/06 07:10:42;;;;;;;6.68;2.40;;;;;;;;;;5030490;28;20473;-59
2022/03/06 07:13:08;;;;;;;6.03;2.30;;;;;;;;;;5040667;28;20037;-57
2022/03/06 07:15:35;;;;;;;5.88;2.70;;;;;;;;;;5036600;28;20302;-58
2022/03/06 07:18:01;;;;;;;7.65;2.50;;;;;;;;;;5031963;28;20037;-59
2022/03/06 07:20:28;;;;;;;7.47;2.05;;;4.50;99.90;;;;;;5039752;28;20052;-59
2022/03/06 07:22:55;;;;;;;10.73;2.03;;;4.70;99.90;;;;;;5013353;28;20383;-58
2022/03/06 07:25:22;;;;;;;6.60;2.20;;;;;;;;;;5033988;28;20048;-57
2022/03/06 07:27:48;;;;;;;8.90;2.92;;;5.40;99.90;;;;;;5034078;28;20411;-57
2022/03/06 07:30:16;;;;;;;7.43;2.13;;;6.00;99.90;;;;;;5034135;28;20126;-57
2022/03/06 07:32:47;;;;;;;5.10;1.92;;;6.40;99.90;;;;;;5036796;28;20044;-57
2022/03/06 07:35:14;;;;;;;4.68;1.95;;;6.40;99.90;;;;;;5035494;28;20519;-57
2022/03/06 07:37:40;;;;;;;5.63;1.80;;;;;;;;;;5033472;28;20040;-57
2022/03/06 07:40:08;;;;;;;6.88;2.22;;;5.40;99.90;;;;;;5033627;28;20049;-57
2022/03/06 07:42:34;;;;;;;4.32;1.98;;;;;;;;;;5018883;28;20120;-57
2022/03/06 07:45:03;;;;;;;5.07;1.75;;;6.60;99.90;;;;;;5031250;28;20191;-57
2022/03/06 07:47:31;;;;;;;7.88;1.92;;;7.40;99.90;;;;;;5019269;28;20316;-57
2022/03/06 07:49:57;;;;;;;4.88;1.67;;;;;;;;;;5033649;28;20075;-57
2022/03/06 07:52:23;;;;;;;4.28;1.95;;;;;;;;;;5036239;28;20037;-57
2022/03/06 07:54:52;;;;;;;4.53;1.58;;;8.20;99.90;;;;;;5037664;28;20040;-57
2022/03/06 07:57:18;;;;;;;9.05;1.67;;;;;;;;;;5036912;28;20056;-57
2022/03/06 07:59:44;;;;;;;5.28;1.92;;;;;;;;;;5023485;28;20810;-57
2022/03/06 08:02:10;;;;;;;5.20;1.55;;;;;;;;;;5033712;28;20502;-57
2022/03/06 08:04:36;;;;;;;3.65;1.55;;;;;;;;;;5033804;28;20037;-57
2022/03/06 08:07:02;;;;;;;5.07;2.85;;;;;;;;;;5039220;28;20052;-57
2022/03/06 08:09:28;;;;;;;5.75;1.80;;;6.90;99.90;;;;;;5036047;28;20038;-58
2022/03/06 08:11:54;;;;;;;4.75;1.75;;;;;;;;;;5026568;28;20048;-57
2022/03/06 08:14:20;;;;;;;6.95;2.63;;;;;;;;;;5034179;28;20033;-57
2022/03/06 08:16:46;;;;;;;4.45;1.55;;;;;;;;;;5038144;28;20048;-56
2022/03/06 08:19:12;;;;;;;4.28;1.75;;;;;;;;;;5031200;28;20037;-56
2022/03/06 08:21:39;;;;;;;4.82;1.40;;;;;;;;;;5035039;28;20906;-57
2022/03/06 08:24:07;;;;;;;3.22;1.50;;;6.10;99.90;;;;;;5017528;28;20042;-57
2022/03/06 08:26:33;;;;;;;6.63;1.75;;;6.20;99.90;;;;;;5032839;28;20050;-57
2022/03/06 08:28:59;;;;;;;2.67;1.20;;;;;;;;;;5034781;28;20029;-57
2022/03/06 08:31:25;;;;;;;6.78;3.22;;;;;;;;;;5034834;28;20041;-58
2022/03/06 08:33:53;;;;;;;4.32;1.58;;;;;;;;;;5037307;28;20397;-57
2022/03/06 08:36:19;;;;;;;5.85;1.98;;;;;;;;;;5033976;28;20508;-57
2022/03/06 08:38:45;;;;;;;6.22;1.95;;;;;;;;;;5031749;28;20037;-58
2022/03/06 08:41:11;;;;;;;6.55;1.92;;;;;;;;;;5038562;28;20080;-57
2022/03/06 08:43:38;;;;;;;5.05;1.70;;;;;;;;;;5035241;28;20048;-57
2022/03/06 08:46:04;;;;;;;4.50;1.65;;;7.40;99.90;;;;;;5034690;28;20043;-58
2022/03/06 08:48:32;;;;;;;3.78;1.45;;;7.30;99.90;;;;;;5035116;28;20189;-58
2022/03/06 08:50:58;;;;;;;4.43;1.23;;;;;;;;;;5031188;28;20037;-57
2022/03/06 08:53:24;;;;;;;5.10;1.77;;;;;;;;;;5035113;28;20429;-57
2022/03/06 08:55:51;;;;;;;5.00;2.10;;;;;;;;;;5022439;28;20049;-57
2022/03/06 08:58:17;;;;;;;4.50;1.80;;;;;;;;;;5024853;28;20041;-57
2022/03/06 09:00:43;;;;;;;6.65;1.80;;;;;;;;;;5027193;28;20485;-57
2022/03/06 09:03:09;;;;;;;5.88;2.05;;;;;;;;;;5033210;28;20029;-57
2022/03/06 09:05:40;;;;;;;6.18;2.00;;;;;;;;;;5029538;28;20073;-57
2022/03/06 09:08:06;;;;;;;5.07;1.70;;;;;;;;;;5034173;28;20463;-57
2022/03/06 09:10:32;;;;;;;4.95;1.77;;;;;;;;;;5038159;28;20371;-57
2022/03/06 09:13:00;;;;;;;4.55;1.92;;;;;;;;;;5034881;28;20647;-57
2022/03/06 09:15:26;;;;;;;7.32;2.75;;;;;;;;;;5037566;28;20045;-57
2022/03/06 09:17:53;;;;;;;5.45;2.40;;;;;;;;;;5032841;28;20134;-58
2022/03/06 09:20:19;;;;;;;4.68;1.92;;;;;;;;;;5032944;28;20048;-57
2022/03/06 09:22:46;;;;;;;4.55;1.80;;;;;;;;;;5033215;28;20033;-57
2022/03/06 09:25:12;;;;;;;4.05;1.50;;;;;;;;;;5029982;28;20041;-57
2022/03/06 09:27:38;;;;;;;4.45;1.88;;;8.30;99.90;;;;;;5034455;28;20045;-57
2022/03/06 09:30:05;;;;;;;6.13;1.77;;;8.40;99.90;;;;;;5039701;28;20040;-57
2022/03/06 09:32:31;;;;;;;3.83;1.60;;;8.70;99.90;;;;;;5034237;28;20128;-57
2022/03/06 09:34:57;;;;;;;5.70;2.05;;;8.40;99.90;;;;;;5028153;28;20206;-57
2022/03/06 09:37:23;;;;;;;7.68;2.30;;;8.60;99.90;;;;;;5029858;28;20516;-56
2022/03/06 09:39:48;;;;;;;4.75;1.67;;;8.10;99.90;;;;;;5031177;28;20045;-58
2022/03/06 09:42:20;;;;;;;7.35;2.08;;;8.50;99.90;;;;;;5036384;28;20032;-57
2022/03/06 09:44:47;;;;;;;3.27;1.60;;;7.70;99.90;;;;;;5032723;28;20399;-57
2022/03/06 09:47:13;;;;;;;4.07;2.05;;;7.60;99.90;;;;;;5012720;28;20158;-57
2022/03/06 09:49:43;;;;;;;6.88;1.88;;;7.10;99.90;;;;;;5035585;28;20075;-58
2022/03/06 09:52:09;;;;;;;4.70;2.00;;;6.70;99.90;;;;;;5018951;28;20132;-59
2022/03/06 09:54:36;;;;;;;7.47;2.47;;;6.50;99.90;;;;;;5016978;28;20033;-59
2022/03/06 09:57:04;;;;;;;7.32;2.30;;;6.50;99.90;;;;;;5028939;28;20037;-59
2022/03/06 09:59:31;;;;;;;5.25;2.00;;;;;;;;;;5036196;28;20409;-59
2022/03/06 10:02:02;;;;;;;7.45;2.53;;;6.50;99.90;;;;;;5032830;28;20092;-58
2022/03/06 10:04:30;;;;;;;5.78;2.53;;;6.20;99.90;;;;;;5030507;28;20148;-59
2022/03/06 10:07:06;;;;;;;6.75;2.30;;;6.10;99.90;;;;;;5030887;28;20037;-58
2022/03/06 10:09:34;;;;;;;4.53;1.85;;;6.00;99.90;;;;;;5034664;28;20045;-59
2022/03/06 10:12:00;;;;;;;4.15;1.92;;;;;;;;;;5039715;28;20120;-58
2022/03/06 10:14:44;;;;;;;4.28;2.55;;;6.00;99.90;;;;;;5035361;28;20045;-59
2022/03/06 10:17:18;;;;;;;5.68;2.08;;;5.80;99.90;;;;;;5033377;28;20044;-58
2022/03/06 10:19:54;;;;;;;4.60;2.25;;;5.80;99.90;;;;;;5035750;28;20449;-57
2022/03/06 10:22:22;;;;;;;2.55;1.25;;;5.70;99.90;;;;;;5035191;28;20395;-57
2022/03/06 10:24:57;;;;;;;4.25;1.90;;;5.60;99.90;;;;;;5016478;28;20060;-58
2022/03/06 10:27:45;;;;;;;4.93;2.08;;;5.80;99.90;;;;;;5039549;28;20099;-58
2022/03/06 10:30:37;;;;;;;8.30;3.67;;;5.80;99.90;;;;;;5033741;28;20034;-59
2022/03/06 10:33:16;;;;;;;7.13;1.77;;;5.80;99.90;;;;;;5032367;28;20445;-58
2022/03/06 10:35:44;;;;;;;5.88;2.05;;;5.80;99.90;;;;;;5030049;28;20056;-58
2022/03/06 10:38:25;;;;;;;4.97;2.40;;;5.80;99.90;;;;;;5034762;28;20040;-58
2022/03/06 10:40:59;;;;;;;6.43;1.93;;;5.90;99.90;;;;;;5037694;28;20505;-58
2022/03/06 10:43:25;;;;;;;5.95;1.88;;;;;;;;;;5027285;28;20065;-59
2022/03/06 10:46:06;;;;;;;5.18;2.17;;;6.00;99.90;;;;;;5033428;28;20049;-58
2022/03/06 10:48:32;;;;;;;6.45;2.70;;;;;;;;;;5039438;28;20052;-58
2022/03/06 10:51:04;;;;;;;5.15;2.13;;;6.20;99.90;;;;;;5036651;28;20489;-57
2022/03/06 10:53:31;;;;;;;7.25;3.15;;;6.30;99.90;;;;;;5043139;28;20088;-58
2022/03/06 10:56:11;;;;;;;3.85;1.95;;;6.40;99.90;;;;;;5041826;28;20505;-58
2022/03/06 10:58:45;;;;;;;2.67;1.58;;;6.60;99.90;;;;;;5040526;28;20096;-58
2022/03/06 11:01:12;;;;;;;6.63;2.00;;;6.40;99.90;;;;;;5037745;28;20608;-58
2022/03/06 11:03:38;;;;;;;5.50;1.95;;;;;;;;;;5039228;28;20048;-58
2022/03/06 11:06:04;;;;;;;6.93;2.00;;;;;;;;;;5033266;28;20545;-58
2022/03/06 11:08:33;;;;;;;5.28;1.98;;;6.50;99.90;;;;;;5034384;28;20068;-58
2022/03/06 11:10:59;;;;;;;5.40;2.33;;;;;;;;;;5040259;28;20080;-58
2022/03/06 11:13:27;;;;;;;7.78;4.20;;;6.60;99.90;;;;;;5041076;28;20040;-57
2022/03/06 11:15:56;;;;;;;7.63;3.00;;;6.90;99.90;;;;;;5041285;28;20045;-58
2022/03/06 11:18:23;;;;;;;4.88;1.70;;;7.00;99.90;;;;;;5034245;28;20358;-57
2022/03/06 11:20:49;;;;;;;4.72;1.92;;;;;;;;;;5034129;28;20041;-57
2022/03/06 11:23:41;;;;;;;6.18;2.17;;;7.20;99.90;;;;;;5042244;28;20045;-57
2022/03/06 11:26:09;;;;;;;6.25;2.60;;;7.10;99.90;;;;;;5043694;28;20119;-57
2022/03/06 11:29:00;;;;;;;5.57;2.10;;;6.90;99.90;;;;;;5031930;28;20529;-57
2022/03/06 11:31:29;;;;;;;5.65;2.20;;;7.00;99.90;;;;;;5038034;28;20442;-58
2022/03/06 11:34:03;;;;;;;6.05;2.30;;;7.00;99.90;;;;;;5042897;28;20055;-57
2022/03/06 11:36:30;;;;;;;7.57;2.55;;;7.00;99.90;;;;;;5043191;28;20045;-58
2022/03/06 11:38:57;;;;;;;4.88;2.30;;;6.90;99.90;;;;;;5041950;28;20128;-57
2022/03/06 11:41:26;;;;;;;5.55;2.25;;;7.00;99.90;;;;;;5042885;28;20036;-57
2022/03/06 11:43:54;;;;;;;6.30;2.40;;;7.10;99.90;;;;;;5034544;28;20048;-58
2022/03/06 11:46:21;;;;;;;7.55;2.35;;;7.10;99.90;;;;;;5040784;28;22075;-57
2022/03/06 11:48:48;;;;;;;4.85;2.13;;;;;;;;;;5040094;28;20076;-57
2022/03/06 11:51:22;;;;;;;8.77;2.30;;;7.10;99.90;;;;;;5033212;28;20042;-57
2022/03/06 11:54:06;;;;;;;8.32;2.33;;;7.10;99.90;;;;;;5035793;28;20075;-57
2022/03/06 11:56:32;;;;;;;5.32;2.28;;;;;;;;;;5040765;28;20036;-57
2022/03/06 11:59:22;;;;;;;5.10;2.40;;;7.20;99.90;;;;;;5029004;28;20556;-57
2022/03/06 12:02:12;;;;;;;4.63;1.95;;;7.00;99.90;;;;;;4993235;28;20137;-57
2022/03/06 12:04:40;;;;;;;3.80;1.70;;;7.00;99.90;;;;;;4990918;28;20089;-57
2022/03/06 12:07:08;;;;;;;6.55;2.40;;;7.00;99.90;;;;;;5002052;28;20101;-57
2022/03/06 12:09:41;;;;;;;4.05;1.88;;;6.80;99.90;;;;;;4994055;28;20046;-57
2022/03/06 12:12:14;;;;;;;7.80;2.22;;;7.00;99.90;;;;;;4989905;28;20565;-57
2022/03/06 12:14:53;;;;;;;5.20;1.80;;;6.70;99.90;;;;;;4971040;28;20070;-57
2022/03/06 12:17:39;;;;;;;7.20;2.25;;;6.60;99.90;;;;;;4997310;28;20431;-57
2022/03/06 12:20:08;;;;;;;5.35;2.10;;;6.60;99.90;;;;;;4989963;28;21077;-57
2022/03/06 12:22:36;;;;;;;6.05;2.45;;;6.70;99.90;;;;;;4993159;28;20033;-57
2022/03/06 12:25:04;;;;;;;6.80;2.38;;;;;;;;;;4993981;28;20054;-57
2022/03/06 12:27:31;;;;;;;4.85;2.35;;;6.90;99.90;;;;;;4995566;28;20042;-57
2022/03/06 12:30:04;;;;;;;5.13;1.95;;;6.80;99.90;;;;;;4978664;28;20109;-57
2022/03/06 12:32:32;;;;;;;8.10;3.75;;;;;;;;;;4990876;28;20065;-58
2022/03/06 12:35:09;;;;;;;6.55;2.38;;;7.00;99.90;;;;;;4992360;28;20402;-58
2022/03/06 12:37:40;;;;;;;7.57;3.30;;;7.00;99.90;;;;;;4986057;28;20043;-58
2022/03/06 12:40:11;;;;;;;5.68;2.28;;;6.80;99.90;;;;;;5038619;28;20036;-57
2022/03/06 12:42:38;;;;;;;5.93;1.90;;;6.90;99.90;;;;;;5036702;28;20056;-58
2022/03/06 12:45:11;;;;;;;5.45;2.45;;;7.00;99.90;;;;;;5030884;28;20047;-58
2022/03/06 12:47:38;;;;;;;7.15;2.63;;;6.80;99.90;;;;;;5036998;28;20809;-58
2022/03/06 12:50:06;;;;;;;5.60;2.15;;;7.00;99.90;;;;;;5038607;28;20613;-57
2022/03/06 12:52:32;;;;;;;8.18;3.13;;;;;;;;;;5017382;28;20079;-58
2022/03/06 12:55:01;;;;;;;6.38;2.20;;;6.90;99.90;;;;;;5040931;28;20045;-57
2022/03/06 12:57:54;;;;;;;7.00;3.00;;;7.00;99.90;;;;;;5038398;28;20044;-58
2022/03/06 13:00:28;;;;;;;7.55;2.13;;;7.00;99.90;;;;;;5032967;28;20072;-58
2022/03/06 13:03:02;;;;;;;3.85;1.77;;;7.00;99.90;;;;;;5030051;28;20108;-58
2022/03/06 13:05:31;;;;;;;6.25;2.92;;;6.70;99.90;;;;;;5032775;28;20048;-57
2022/03/06 13:07:58;;;;;;;10.82;6.28;;;;;;;;;;5016695;28;20582;-58
2022/03/06 13:10:24;;;;;;;7.53;2.60;;;6.80;99.90;;;;;;5039895;28;20049;-58
2022/03/06 13:12:52;;;;;;;5.93;1.95;;;6.80;99.90;;;;;;5030717;28;20111;-58
2022/03/06 13:15:18;;;;;;;5.97;3.22;;;;;;;;;;5036237;28;20040;-58
2022/03/06 13:17:46;;;;;;;14.93;4.85;;;6.70;99.90;;;;;;5038430;28;20061;-58
2022/03/06 13:20:15;;;;;;;9.43;5.00;;;6.60;99.90;;;;;;5036487;28;20170;-58
2022/03/06 13:22:41;;;;;;;8.20;3.50;;;;;;;;;;5026007;28;20072;-58
2022/03/06 13:25:08;;;;;;;8.75;3.90;;;6.60;99.90;;;;;;5036340;28;20052;-58
2022/03/06 13:27:40;;;;;;;8.32;4.60;;;6.70;99.90;;;;;;5038821;28;20425;-58
2022/03/06 13:30:13;;;;;;;7.10;2.30;;;6.40;99.90;;;;;;5032664;28;20386;-57
2022/03/06 13:32:48;;;;;;;4.43;1.90;;;6.40;99.90;;;;;;5038066;28;20417;-57
2022/03/06 13:35:38;;;;;;;4.90;1.92;;;6.40;99.90;;;;;;5033686;28;20072;-57
2022/03/06 13:38:13;;;;;;;6.95;2.47;;;6.60;99.90;;;;;;5029738;28;20607;-58
2022/03/06 13:40:47;;;;;;;6.13;2.40;;;6.60;99.90;;;;;;5036164;28;20095;-57
2022/03/06 13:43:13;;;;;;;6.65;2.85;;;6.90;99.90;;;;;;5031984;28;20076;-57
2022/03/06 13:45:41;;;;;;;5.43;1.70;;;6.90;99.90;;;;;;5034852;28;20087;-57
2022/03/06 13:48:09;;;;;;;5.57;1.90;;;6.90;99.90;;;;;;5032178;28;20040;-57
2022/03/06 13:50:45;;;;;;;6.30;2.10;;;6.40;99.90;;;;;;5029374;28;20068;-57
2022/03/06 13:53:12;;;;;;;5.05;2.38;;;6.60;99.90;;;;;;5032220;28;20458;-57
2022/03/06 13:56:03;;;;;;;7.57;2.78;;;6.40;99.90;;;;;;5011093;28;20148;-58
2022/03/06 13:58:39;;;;;;;10.52;3.17;;;6.60;99.90;;;;;;5021329;28;20049;-57
2022/03/06 14:01:11;;;;;;;5.72;2.10;;;6.70;99.90;;;;;;5032081;28;20068;-57
2022/03/06 14:03:38;;;;;;;4.60;2.28;;;6.70;99.90;;;;;;5034277;28;20561;-57